首页
METAR-TAF:

METAR-TAF

机场 :

礦水城機場

礦水城, 俄罗斯

纬度: 44-14N, 经度: 043-04E, 海拔: 314米

当前天气观测

该预报发布于18分钟前的15:30 UTC
风速10节,风向东转东南
温度 33°C
湿度 15%
气压 1008 hPa
能见度10公里或以上

METAR: URMM 191530Z 11005MPS 9999 NSC 33/03 Q1008 R12/090070 NOSIG RMK QFE728/0971

时间: 18:48 (15:48 UTC)

预报

该预报发布于1小时和48分钟前的14:00 UTC
预报有效从19日的 15点(UTC)到 20日的 15点(UTC)
风速6节,风向,有时为16节阵风
能见度10公里或以上

TAF: URMM 191400Z 1915/2015 08003G08MPS 9999 NSC TX35/2012Z TN18/2002Z

超过4000个机场的气象观测和天气预报(METAR&TAF报告)。

可查询的气象台以黄色和红色小点在地图上表示。

将鼠标移到小点上方,可查看气象台名称。

然后点击查看天气观测和预报。

如需切换地图:点击带黑十字的绿色按钮放大地图;点击带横线的绿色按钮缩小地图;或者点击绿色箭头查看邻近地区的地图。


METAR-TAF: